Time;durP1;ratioP1;P1;durP2;ratioP2;P2;SDS_P1;SDS_P2;PMS_P1;PMS_P2;Temp;Humidity;BMP_temperature;BMP_pressure;BME280_temperature;BME280_humidity;BME280_pressure;Samples;Min_cycle;Max_cycle;Signal;HPM_P1;HPM_P2
2023/12/26 00:01:24;;;;;;;0.20;0.20;;;;;;;10.63;100.00;99394.13;5123710;28;20552;-76
2023/12/26 00:03:54;;;;;;;0.73;0.30;;;;;;;10.79;100.00;99368.84;5110168;29;20041;-75
2023/12/26 00:06:24;;;;;;;0.47;0.30;;;;;;;10.67;100.00;99365.16;5111564;29;20031;-76
2023/12/26 00:08:55;;;;;;;3.17;0.98;;;;;;;10.70;100.00;99366.75;5108674;29;20047;-73
2023/12/26 00:11:25;;;;;;;1.00;0.50;;;;;;;10.71;100.00;99360.59;5110953;28;20082;-76
2023/12/26 00:13:56;;;;;;;0.30;0.10;;;;;;;10.73;100.00;99353.53;5111506;29;20113;-74
2023/12/26 00:16:26;;;;;;;0.17;0.10;;;;;;;10.73;100.00;99345.69;5108081;29;20027;-76
2023/12/26 00:18:57;;;;;;;0.20;0.10;;;;;;;10.82;100.00;99345.19;5101371;29;20047;-74
2023/12/26 00:21:27;;;;;;;0.10;0.10;;;;;;;10.81;100.00;99346.06;5112139;29;20090;-76
2023/12/26 00:23:57;;;;;;;0.17;0.10;;;;;;;10.81;100.00;99344.31;5110675;29;20078;-75
2023/12/26 00:26:28;;;;;;;0.85;0.10;;;;;;;10.94;100.00;99341.84;5104246;29;20031;-76
2023/12/26 00:28:58;;;;;;;0.08;0.00;;;;;;;10.96;100.00;99345.22;5103654;29;20038;-77
2023/12/26 00:31:29;;;;;;;0.73;0.30;;;;;;;10.92;100.00;99346.31;5105997;29;20027;-76
2023/12/26 00:33:59;;;;;;;0.40;0.17;;;;;;;10.97;100.00;99339.06;5097842;29;20036;-76
2023/12/26 00:36:30;;;;;;;0.52;0.38;;;;;;;11.02;100.00;99333.50;5105267;29;20622;-77
2023/12/26 00:39:00;;;;;;;0.43;0.30;;;;;;;11.03;100.00;99327.34;5110607;29;20023;-76
2023/12/26 00:41:30;;;;;;;1.05;0.30;;;;;;;11.12;100.00;99321.56;5112023;29;20031;-76
2023/12/26 00:44:02;;;;;;;1.00;0.50;;;;;;;11.12;100.00;99316.34;5108147;29;20023;-75
2023/12/26 00:46:32;;;;;;;0.75;0.47;;;;;;;11.14;100.00;99313.66;5107752;29;20393;-77
2023/12/26 00:49:02;;;;;;;0.77;0.50;;;;;;;11.16;100.00;99317.00;5112593;29;20027;-76
2023/12/26 00:51:33;;;;;;;1.33;0.57;;;;;;;11.22;100.00;99308.81;5106251;29;20023;-76
2023/12/26 00:54:03;;;;;;;1.38;0.68;;;;;;;11.15;100.00;99297.88;5098764;29;20246;-77
2023/12/26 00:56:34;;;;;;;1.38;0.50;;;;;;;11.20;100.00;99301.06;5099401;29;20084;-76
2023/12/26 00:59:04;;;;;;;3.90;0.77;;;;;;;11.22;100.00;99301.81;5099821;29;20110;-77
2023/12/26 01:01:35;;;;;;;2.38;1.05;;;;;;;11.16;100.00;99302.19;5107716;29;20031;-76
2023/12/26 01:04:05;;;;;;;1.88;0.77;;;;;;;11.13;100.00;99298.91;5105610;29;20016;-77
2023/12/26 01:06:36;;;;;;;1.17;0.68;;;;;;;11.13;100.00;99283.22;5093972;29;20036;-76
2023/12/26 01:09:06;;;;;;;1.90;0.85;;;;;;;11.24;100.00;99288.66;5097037;29;20135;-76
2023/12/26 01:11:36;;;;;;;3.42;1.35;;;;;;;11.17;100.00;99293.41;5101786;29;20093;-76
2023/12/26 01:14:07;;;;;;;2.78;1.35;;;;;;;11.15;100.00;99290.03;5102605;29;20028;-76
2023/12/26 01:16:37;;;;;;;5.55;1.70;;;;;;;11.10;100.00;99289.44;5102183;29;20259;-76
2023/12/26 01:19:08;;;;;;;4.43;1.75;;;;;;;11.16;100.00;99299.56;5098280;29;20047;-76
2023/12/26 01:21:38;;;;;;;6.45;1.65;;;;;;;11.20;100.00;99288.00;5104871;29;20517;-76
2023/12/26 01:24:08;;;;;;;3.03;1.40;;;;;;;11.19;100.00;99294.16;5101486;29;20023;-76
2023/12/26 01:26:39;;;;;;;5.35;1.77;;;;;;;11.29;100.00;99291.84;5119783;28;20515;-76
2023/12/26 01:29:09;;;;;;;4.97;1.80;;;;;;;11.26;100.00;99287.63;5103723;29;20047;-77
2023/12/26 01:31:40;;;;;;;6.47;2.00;;;;;;;11.25;100.00;99288.56;5103267;29;20043;-76
2023/12/26 01:34:10;;;;;;;5.68;1.90;;;;;;;11.31;100.00;99296.03;5101773;29;20423;-76
2023/12/26 01:36:40;;;;;;;4.13;1.70;;;;;;;11.32;100.00;99292.50;5103967;29;20114;-76
2023/12/26 01:39:13;;;;;;;3.70;1.30;;;;;;;11.32;100.00;99284.66;5102383;29;20553;-77
2023/12/26 01:41:43;;;;;;;3.63;1.25;;;;;;;11.34;100.00;99290.66;5103555;29;20292;-76
2023/12/26 01:44:14;;;;;;;3.95;1.58;;;;;;;11.40;100.00;99290.28;5103397;29;20038;-76
2023/12/26 01:46:44;;;;;;;3.20;0.90;;;;;;;11.41;100.00;99288.50;5100902;29;20035;-77
2023/12/26 01:49:15;;;;;;;2.70;1.02;;;;;;;11.42;100.00;99287.56;5101429;29;20027;-76
2023/12/26 01:51:47;;;;;;;1.45;0.60;;;;;;;11.37;100.00;99293.06;5102743;29;20058;-76
2023/12/26 01:54:19;;;;;;;2.55;0.60;;;;;;;11.34;100.00;99292.41;5113994;28;20122;-76
2023/12/26 01:56:49;;;;;;;0.70;0.30;;;;;;;11.41;100.00;99280.66;5102168;29;20039;-77
2023/12/26 01:59:20;;;;;;;0.32;0.10;;;;;;;11.44;100.00;99290.94;5100584;29;20393;-76
2023/12/26 02:01:51;;;;;;;0.30;0.17;;;;;;;11.47;100.00;99288.97;5102102;29;20062;-77
2023/12/26 02:04:21;;;;;;;0.50;0.08;;;;;;;11.42;100.00;99287.56;5102766;29;20035;-77
2023/12/26 02:06:52;;;;;;;0.22;0.05;;;;;;;11.46;100.00;99284.66;5099409;29;20042;-76
2023/12/26 02:09:24;;;;;;;0.00;0.00;;;;;;;11.38;100.00;99286.06;5099781;29;20075;-77
2023/12/26 02:11:55;;;;;;;0.25;0.08;;;;;;;11.42;100.00;99280.56;5103417;29;20039;-75
2023/12/26 02:14:25;;;;;;;0.10;0.10;;;;;;;11.46;100.00;99271.59;5099984;29;20115;-75
2023/12/26 02:16:59;;;;;;;0.55;0.10;;;;;;;11.41;100.00;99276.25;5102927;29;20134;-76
2023/12/26 02:19:29;;;;;;;1.30;0.10;;;;;;;11.39;100.00;99282.50;5099511;29;20504;-77
2023/12/26 02:22:00;;;;;;;0.43;0.10;;;;;;;11.43;100.00;99279.63;5099191;29;20312;-76
2023/12/26 02:24:30;;;;;;;1.00;0.00;;;;;;;11.40;100.00;99269.34;5102773;29;20388;-77
2023/12/26 02:27:01;;;;;;;0.10;0.00;;;;;;;11.42;100.00;99275.31;5101235;29;20086;-76
2023/12/26 02:29:32;;;;;;;0.20;0.10;;;;;;;11.38;100.00;99280.81;5101700;29;20508;-77
2023/12/26 02:32:03;;;;;;;0.00;0.00;;;;;;;11.41;100.00;99273.63;5101795;29;20036;-75
2023/12/26 02:34:34;;;;;;;0.10;0.00;;;;;;;11.38;100.00;99275.59;5101163;29;20111;-76
2023/12/26 02:37:05;;;;;;;0.00;0.00;;;;;;;11.39;100.00;99285.97;5104616;29;20174;-76
2023/12/26 02:39:36;;;;;;;0.32;0.10;;;;;;;11.48;100.00;99295.03;5106595;29;20066;-76
2023/12/26 02:42:06;;;;;;;0.00;0.00;;;;;;;11.44;100.00;99294.38;5104075;29;20232;-78
2023/12/26 02:44:36;;;;;;;0.30;0.20;;;;;;;11.41;100.00;99307.66;5106018;29;20085;-76
2023/12/26 02:47:08;;;;;;;0.22;0.10;;;;;;;11.49;100.00;99310.66;5105790;29;20225;-75
2023/12/26 02:49:39;;;;;;;0.55;0.15;;;;;;;11.43;100.00;99312.81;5102816;29;20027;-76
2023/12/26 02:52:09;;;;;;;1.45;0.35;;;;;;;11.50;100.00;99303.66;5103392;29;20027;-77
2023/12/26 02:54:40;;;;;;;0.20;0.10;;;;;;;11.36;100.00;99301.00;5106153;29;20035;-77
2023/12/26 02:57:10;;;;;;;0.32;0.00;;;;;;;11.37;100.00;99300.91;5106059;29;20030;-77
2023/12/26 02:59:40;;;;;;;0.40;0.10;;;;;;;11.48;100.00;99306.34;5106741;29;20042;-76
2023/12/26 03:02:11;;;;;;;0.08;0.00;;;;;;;11.49;100.00;99313.28;5108124;29;20511;-76
2023/12/26 03:04:41;;;;;;;0.20;0.10;;;;;;;11.45;100.00;99310.94;5103394;29;20039;-76
2023/12/26 03:07:12;;;;;;;0.00;0.00;;;;;;;11.47;100.00;99309.88;5107738;29;20031;-77
2023/12/26 03:09:42;;;;;;;0.80;0.10;;;;;;;11.47;100.00;99302.03;5102234;29;20116;-76
2023/12/26 03:12:12;;;;;;;0.60;0.00;;;;;;;11.35;100.00;99302.78;5104797;29;20078;-77
2023/12/26 03:14:43;;;;;;;0.22;0.10;;;;;;;11.20;100.00;99303.69;5104713;29;20047;-76
2023/12/26 03:17:13;;;;;;;0.35;0.20;;;;;;;11.21;100.00;99300.13;5107342;29;20062;-76
2023/12/26 03:19:43;;;;;;;0.20;0.10;;;;;;;11.12;100.00;99300.66;5102544;29;20073;-76
2023/12/26 03:22:14;;;;;;;0.57;0.10;;;;;;;11.28;100.00;99296.22;5100489;29;20441;-77
2023/12/26 03:24:44;;;;;;;0.10;0.10;;;;;;;11.25;100.00;99301.63;5102732;29;20319;-76
2023/12/26 03:27:15;;;;;;;0.10;0.10;;;;;;;11.29;100.00;99300.50;5104704;29;20171;-77
2023/12/26 03:29:45;;;;;;;0.20;0.00;;;;;;;11.33;100.00;99301.19;5104015;29;20102;-76
2023/12/26 03:32:17;;;;;;;0.32;0.05;;;;;;;11.33;100.00;99306.41;5101050;29;20320;-77
2023/12/26 03:34:48;;;;;;;0.00;0.00;;;;;;;11.38;100.00;99297.38;5100372;29;20465;-77
2023/12/26 03:37:18;;;;;;;0.00;0.00;;;;;;;11.38;100.00;99306.97;5102582;29;20027;-77
2023/12/26 03:39:49;;;;;;;0.10;0.10;;;;;;;11.31;100.00;99308.28;5106048;29;20035;-77
2023/12/26 03:42:19;;;;;;;0.00;0.00;;;;;;;11.30;100.00;99314.44;5101629;29;20114;-76
2023/12/26 03:44:50;;;;;;;0.10;0.10;;;;;;;11.27;100.00;99315.44;5104181;29;20435;-76
2023/12/26 03:47:20;;;;;;;0.10;0.00;;;;;;;11.29;100.00;99310.97;5102582;29;20032;-77
2023/12/26 03:49:51;;;;;;;0.30;0.00;;;;;;;11.23;100.00;99306.13;5102988;29;20031;-76
2023/12/26 03:52:21;;;;;;;0.10;0.10;;;;;;;11.25;100.00;99317.31;5098983;29;20321;-77
2023/12/26 03:54:52;;;;;;;0.10;0.00;;;;;;;11.21;100.00;99302.75;5096467;29;20644;-77
2023/12/26 03:57:23;;;;;;;0.40;0.20;;;;;;;11.27;100.00;99307.59;5102979;29;20477;-76
2023/12/26 03:59:53;;;;;;;0.52;0.10;;;;;;;11.32;100.00;99318.66;5104622;29;20031;-76
2023/12/26 04:02:24;;;;;;;0.00;0.00;;;;;;;11.28;100.00;99303.22;5104324;29;20038;-76
2023/12/26 04:04:54;;;;;;;0.10;0.10;;;;;;;11.29;100.00;99323.22;5102615;29;20047;-76
2023/12/26 04:07:25;;;;;;;1.02;0.10;;;;;;;11.26;100.00;99313.78;5102337;29;20123;-76
2023/12/26 04:09:55;;;;;;;0.10;0.10;;;;;;;11.28;100.00;99321.53;5099927;29;20019;-76
2023/12/26 04:12:25;;;;;;;0.08;0.08;;;;;;;11.23;100.00;99334.03;5102997;29;20473;-76
2023/12/26 04:14:56;;;;;;;0.05;0.00;;;;;;;11.26;100.00;99339.94;5103081;29;20370;-76
2023/12/26 04:17:26;;;;;;;0.00;0.00;;;;;;;11.32;100.00;99336.97;5103115;29;20079;-76
2023/12/26 04:19:57;;;;;;;0.00;0.00;;;;;;;11.22;100.00;99338.44;5103119;29;20035;-75
2023/12/26 04:22:27;;;;;;;0.10;0.10;;;;;;;11.24;100.00;99333.94;5103814;29;20027;-76
2023/12/26 04:24:58;;;;;;;0.90;0.10;;;;;;;11.20;100.00;99324.59;5103353;29;20024;-76
2023/12/26 04:27:28;;;;;;;0.00;0.00;;;;;;;11.13;100.00;99328.47;5103052;29;20303;-76
2023/12/26 04:29:58;;;;;;;0.10;0.10;;;;;;;11.17;100.00;99330.00;5104187;29;20077;-76
2023/12/26 04:32:29;;;;;;;0.10;0.00;;;;;;;11.15;100.00;99329.25;5103317;29;20660;-76
2023/12/26 04:34:59;;;;;;;1.38;0.10;;;;;;;11.19;100.00;99327.28;5101487;29;20429;-76
2023/12/26 04:37:30;;;;;;;0.20;0.10;;;;;;;11.07;100.00;99326.22;5103298;29;20062;-77
2023/12/26 04:40:00;;;;;;;0.93;0.57;;;;;;;11.08;100.00;99325.31;5104049;29;20019;-77
2023/12/26 04:42:30;;;;;;;0.10;0.10;;;;;;;11.12;100.00;99326.81;5103926;29;20064;-76
2023/12/26 04:45:01;;;;;;;0.10;0.10;;;;;;;11.13;100.00;99332.88;5105640;29;20035;-76
2023/12/26 04:47:32;;;;;;;0.08;0.05;;;;;;;11.13;100.00;99341.56;5105420;29;20209;-76
2023/12/26 04:50:03;;;;;;;0.38;0.15;;;;;;;11.08;100.00;99348.81;5102851;29;20035;-76
2023/12/26 04:52:33;;;;;;;0.28;0.10;;;;;;;11.07;100.00;99394.22;5103300;29;20505;-77
2023/12/26 04:55:04;;;;;;;0.73;0.20;;;;;;;11.02;100.00;99401.47;5101572;29;20043;-76
2023/12/26 04:57:34;;;;;;;0.20;0.20;;;;;;;11.00;100.00;99425.19;5101418;29;20039;-75
2023/12/26 05:00:05;;;;;;;2.00;0.20;;;;;;;10.83;100.00;99418.25;5103862;29;20020;-76
2023/12/26 05:02:36;;;;;;;0.13;0.10;;;;;;;10.67;100.00;99430.47;5105110;29;20102;-76
2023/12/26 05:05:07;;;;;;;0.85;0.20;;;;;;;10.54;100.00;99428.59;5103397;29;20489;-76
2023/12/26 05:07:37;;;;;;;0.30;0.10;;;;;;;10.47;100.00;99441.16;5103374;29;20598;-76
2023/12/26 05:10:08;;;;;;;3.13;0.30;;;;;;;10.44;100.00;99441.31;5099926;29;20027;-76
2023/12/26 05:12:39;;;;;;;0.85;0.20;;;;;;;10.32;100.00;99448.97;5101310;29;20046;-76
2023/12/26 05:15:09;;;;;;;1.52;0.20;;;;;;;10.20;100.00;99450.41;5101457;29;20027;-76
2023/12/26 05:17:39;;;;;;;1.77;0.20;;;;;;;10.08;100.00;99450.22;5104749;29;20039;-76
2023/12/26 05:20:10;;;;;;;1.45;0.10;;;;;;;10.09;100.00;99451.91;5103166;29;20379;-76
2023/12/26 05:22:41;;;;;;;2.42;0.20;;;;;;;10.10;100.00;99458.81;5104272;29;20039;-76
2023/12/26 05:25:11;;;;;;;0.20;0.10;;;;;;;10.00;100.00;99461.00;5099581;29;20023;-76
2023/12/26 05:27:41;;;;;;;1.55;0.43;;;;;;;9.89;100.00;99463.34;5104267;29;20474;-76
2023/12/26 05:30:14;;;;;;;2.40;0.20;;;;;;;9.95;100.00;99463.03;5100887;29;20085;-74
2023/12/26 05:32:45;;;;;;;1.42;0.28;;;;;;;9.98;100.00;99464.63;5095707;29;20320;-75
2023/12/26 05:35:15;;;;;;;2.88;0.30;;;;;;;9.86;100.00;99483.50;5102381;29;20146;-75
2023/12/26 05:37:46;;;;;;;0.38;0.13;;;;;;;9.86;100.00;99479.13;5101961;29;20051;-76
2023/12/26 05:40:16;;;;;;;1.45;0.30;;;;;;;9.92;100.00;99486.66;5096463;29;20032;-76
2023/12/26 05:42:47;;;;;;;0.95;0.30;;;;;;;9.90;100.00;99485.03;5100869;29;20054;-76
2023/12/26 05:45:17;;;;;;;1.55;0.30;;;;;;;9.84;100.00;99486.19;5099192;29;20501;-76
2023/12/26 05:47:48;;;;;;;2.10;0.20;;;;;;;9.92;100.00;99486.66;5101658;29;20548;-76
2023/12/26 05:50:18;;;;;;;1.38;0.40;;;;;;;9.92;100.00;99485.81;5100443;29;20032;-75
2023/12/26 05:52:49;;;;;;;0.93;0.22;;;;;;;9.86;100.00;99493.94;5100966;29;20079;-76
2023/12/26 05:55:19;;;;;;;3.15;0.40;;;;;;;9.87;100.00;99493.03;5098431;29;20031;-76
2023/12/26 05:57:50;;;;;;;4.03;0.40;;;;;;;9.75;100.00;99504.06;5102086;29;20027;-76
2023/12/26 06:00:20;;;;;;;1.75;0.50;;;;;;;9.79;100.00;99510.84;5100996;29;20032;-76
2023/12/26 06:02:51;;;;;;;2.55;0.40;;;;;;;9.82;100.00;99510.69;5098958;29;20046;-76
2023/12/26 06:05:22;;;;;;;3.40;0.30;;;;;;;9.79;100.00;99516.88;5098958;29;20075;-76
2023/12/26 06:07:52;;;;;;;0.68;0.30;;;;;;;9.89;100.00;99532.94;5100931;29;20426;-76
2023/12/26 06:10:22;;;;;;;4.07;0.60;;;;;;;9.83;100.00;99538.47;5102235;29;20561;-76
2023/12/26 06:12:53;;;;;;;2.33;0.60;;;;;;;9.80;100.00;99533.41;5104837;29;20464;-75
2023/12/26 06:15:24;;;;;;;1.33;0.40;;;;;;;9.83;100.00;99533.25;5104045;29;20039;-76
2023/12/26 06:17:54;;;;;;;1.58;0.40;;;;;;;9.80;100.00;99536.00;5106917;29;20105;-75
2023/12/26 06:20:27;;;;;;;3.35;0.40;;;;;;;9.80;100.00;99546.44;5103901;29;20035;-75
2023/12/26 06:22:57;;;;;;;5.75;0.65;;;;;;;9.87;100.00;99548.69;5102121;29;20393;-75
2023/12/26 06:25:27;;;;;;;3.67;0.73;;;;;;;9.79;100.00;99560.41;5106959;29;20092;-75
2023/12/26 06:27:58;;;;;;;2.00;0.45;;;;;;;9.73;100.00;99565.91;5103469;29;20404;-75
2023/12/26 06:30:28;;;;;;;4.82;0.80;;;;;;;9.76;100.00;99570.97;5103898;29;20023;-76
2023/12/26 06:32:58;;;;;;;2.67;0.60;;;;;;;9.81;100.00;99580.28;5103070;29;20119;-74
2023/12/26 06:35:29;;;;;;;1.52;0.40;;;;;;;9.83;100.00;99573.22;5100757;29;20024;-76
2023/12/26 06:37:59;;;;;;;3.97;0.55;;;;;;;9.71;100.00;99583.41;5105935;29;20300;-75
2023/12/26 06:40:30;;;;;;;2.83;0.57;;;;;;;9.74;100.00;99580.66;5101336;29;20454;-75
2023/12/26 06:43:00;;;;;;;4.05;0.60;;;;;;;9.68;100.00;99587.00;5103853;29;20063;-75
2023/12/26 06:45:30;;;;;;;5.40;0.65;;;;;;;9.66;100.00;99590.63;5101161;29;20039;-75
2023/12/26 06:48:01;;;;;;;5.05;0.80;;;;;;;9.67;100.00;99600.13;5103034;29;20031;-75
2023/12/26 06:50:31;;;;;;;1.50;0.40;;;;;;;9.67;100.00;99597.53;5101868;29;20481;-75
2023/12/26 06:53:02;;;;;;;3.38;0.65;;;;;;;9.65;100.00;99599.34;5104994;29;20032;-75
2023/12/26 06:55:32;;;;;;;2.92;0.50;;;;;;;9.64;100.00;99597.66;5099587;29;20027;-75
2023/12/26 06:58:04;;;;;;;6.00;0.80;;;;;;;9.61;100.00;99605.63;5102924;29;20476;-75
2023/12/26 07:00:35;;;;;;;4.13;0.75;;;;;;;9.56;100.00;99605.00;5101655;29;20043;-75
2023/12/26 07:03:05;;;;;;;5.35;0.90;;;;;;;9.56;100.00;99620.63;5105116;29;20405;-75
2023/12/26 07:05:35;;;;;;;4.35;1.08;;;;;;;9.58;100.00;99624.88;5100907;29;20074;-75
2023/12/26 07:08:06;;;;;;;5.43;0.90;;;;;;;9.58;100.00;99618.81;5099973;29;20030;-75
2023/12/26 07:10:36;;;;;;;3.97;1.10;;;;;;;9.59;100.00;99626.56;5098328;29;20118;-75
2023/12/26 07:13:07;;;;;;;4.68;0.70;;;;;;;9.59;100.00;99642.22;5100130;29;20663;-75
2023/12/26 07:15:38;;;;;;;3.85;0.90;;;;;;;9.57;100.00;99643.19;5099904;29;20123;-75
2023/12/26 07:18:09;;;;;;;6.07;0.63;;;;;;;9.56;100.00;99637.16;5100137;29;20251;-75
2023/12/26 07:20:39;;;;;;;2.15;0.50;;;;;;;9.55;100.00;99651.09;5099947;29;20024;-75
2023/12/26 07:23:10;;;;;;;3.40;0.55;;;;;;;9.61;100.00;99656.03;5104989;29;20015;-76
2023/12/26 07:25:42;;;;;;;3.30;1.15;;;;;;;9.52;100.00;99666.03;5102398;29;20039;-75
2023/12/26 07:28:16;;;;;;;2.63;0.50;;;;;;;9.47;100.00;99668.03;5104958;29;20042;-76
2023/12/26 07:30:47;;;;;;;2.85;0.40;;;;;;;9.52;100.00;99676.47;5103416;29;20523;-76
2023/12/26 07:33:17;;;;;;;6.88;0.90;;;;;;;9.49;100.00;99680.06;5104240;29;20393;-73
2023/12/26 07:35:48;;;;;;;2.80;0.70;;;;;;;9.56;100.00;99683.25;5103273;29;20441;-75
2023/12/26 07:38:19;;;;;;;2.83;0.70;;;;;;;9.60;100.00;99698.69;5104110;29;20091;-74
2023/12/26 07:40:50;;;;;;;3.65;0.60;;;;;;;9.57;100.00;99698.84;5104605;29;20095;-76
2023/12/26 07:43:20;;;;;;;1.60;0.40;;;;;;;9.61;100.00;99696.91;5102373;29;20106;-74
2023/12/26 07:45:50;;;;;;;1.60;0.38;;;;;;;9.66;100.00;99708.00;5104204;29;20509;-75
2023/12/26 07:48:21;;;;;;;4.32;0.43;;;;;;;9.63;100.00;99715.97;5102100;29;20027;-75
2023/12/26 07:50:51;;;;;;;3.35;0.50;;;;;;;9.59;100.00;99717.00;5102688;29;20031;-76
2023/12/26 07:53:22;;;;;;;3.25;0.45;;;;;;;9.57;100.00;99717.09;5105987;29;20030;-75
2023/12/26 07:55:53;;;;;;;3.47;0.77;;;;;;;9.53;100.00;99731.19;5098527;29;20488;-75
2023/12/26 07:58:23;;;;;;;4.53;0.60;;;;;;;9.44;98.77;99736.81;5101221;29;20038;-75
2023/12/26 08:00:53;;;;;;;3.30;0.43;;;;;;;9.44;98.78;99751.59;5100148;29;20054;-75
2023/12/26 08:03:24;;;;;;;4.75;0.40;;;;;;;9.38;99.02;99749.25;5098276;29;20078;-75
2023/12/26 08:05:54;;;;;;;2.35;0.40;;;;;;;9.36;99.31;99766.75;5097957;29;20393;-75
2023/12/26 08:08:25;;;;;;;2.95;0.68;;;;;;;9.39;96.46;99777.03;5102423;29;20087;-76
2023/12/26 08:10:55;;;;;;;4.55;0.50;;;;;;;9.50;96.53;99786.06;5101373;29;20051;-75
2023/12/26 08:13:25;;;;;;;4.35;0.63;;;;;;;9.73;95.22;99769.41;5103958;29;20147;-75
2023/12/26 08:15:56;;;;;;;3.08;0.50;;;;;;;9.85;94.18;99779.31;5106618;29;20048;-75
2023/12/26 08:18:26;;;;;;;3.55;0.70;;;;;;;9.81;93.23;99801.25;5103931;29;20383;-75
2023/12/26 08:20:57;;;;;;;1.65;0.47;;;;;;;9.81;93.83;99803.84;5104169;29;20032;-75
2023/12/26 08:23:28;;;;;;;4.90;0.70;;;;;;;9.69;93.43;99814.81;5103670;29;20024;-75
2023/12/26 08:25:58;;;;;;;4.57;1.02;;;;;;;9.38;94.22;99824.88;5101600;29;20396;-75
2023/12/26 08:28:28;;;;;;;2.35;0.50;;;;;;;9.27;95.41;99838.38;5104210;29;20030;-75
2023/12/26 08:30:59;;;;;;;4.53;0.65;;;;;;;9.30;96.70;99837.41;5107083;29;20106;-75
2023/12/26 08:33:31;;;;;;;3.03;0.60;;;;;;;9.16;97.40;99834.53;5101646;29;20023;-75
2023/12/26 08:36:02;;;;;;;6.63;0.73;;;;;;;9.38;95.94;99843.13;5104955;29;20027;-74
2023/12/26 08:38:32;;;;;;;5.55;0.80;;;;;;;9.37;96.65;99854.47;5094861;28;20449;-74
2023/12/26 08:41:05;;;;;;;5.93;0.80;;;;;;;9.15;97.48;99858.91;5092241;29;20043;-75
2023/12/26 08:43:36;;;;;;;8.75;0.80;;;;;;;9.01;98.02;99856.00;5094143;29;20122;-75
2023/12/26 08:46:06;;;;;;;4.95;0.65;;;;;;;9.10;98.06;99852.16;5101508;29;20135;-75
2023/12/26 08:48:37;;;;;;;5.90;0.90;;;;;;;9.20;98.95;99852.59;5109615;28;20332;-75
2023/12/26 08:51:07;;;;;;;7.32;1.08;;;;;;;9.04;98.61;99863.69;5100141;28;20019;-75
2023/12/26 08:53:38;;;;;;;3.30;0.80;;;;;;;9.02;98.64;99870.72;5097590;29;20047;-74
2023/12/26 08:56:08;;;;;;;6.85;0.63;;;;;;;9.05;99.56;99885.41;5097549;29;20077;-75
2023/12/26 08:58:38;;;;;;;9.15;0.73;;;;;;;9.12;99.57;99879.03;5098244;29;20035;-74
2023/12/26 09:01:10;;;;;;;5.50;1.08;;;;;;;9.08;99.90;99878.28;5100308;29;20027;-75
2023/12/26 09:03:41;;;;;;;4.43;0.80;;;;;;;9.22;99.51;99887.25;5097317;29;20054;-74
2023/12/26 09:06:12;;;;;;;10.68;1.00;;;;;;;9.35;99.06;99887.59;5101463;29;20027;-74
2023/12/26 09:08:42;;;;;;;9.93;0.88;;;;;;;9.57;98.71;99898.81;5095590;29;20047;-75
2023/12/26 09:11:13;;;;;;;7.22;0.90;;;;;;;9.63;98.33;99898.56;5099831;29;20038;-75
2023/12/26 09:13:44;;;;;;;10.07;1.10;;;;;;;9.64;98.27;99913.31;5096870;28;20035;-73
2023/12/26 09:16:14;;;;;;;6.72;0.80;;;;;;;9.56;97.79;99899.72;5103078;29;20540;-75
2023/12/26 09:18:45;;;;;;;5.18;0.70;;;;;;;9.79;97.55;99908.28;5100401;29;20480;-74
2023/12/26 09:21:16;;;;;;;4.07;0.60;;;;;;;9.93;97.48;99907.66;5105229;29;20528;-75
2023/12/26 09:23:46;;;;;;;10.65;2.58;;;;;;;10.01;97.07;99910.81;5101171;28;20641;-75
2023/12/26 09:26:21;;;;;;;6.22;0.93;;;;;;;10.02;95.79;99917.75;5103173;29;20039;-75
2023/12/26 09:28:51;;;;;;;5.50;1.10;;;;;;;10.05;95.68;99922.84;5103344;28;20093;-75
2023/12/26 09:31:22;;;;;;;8.10;1.10;;;;;;;10.10;95.88;99931.31;5104674;29;20883;-75
2023/12/26 09:33:52;;;;;;;2.83;0.60;;;;;;;10.14;96.15;99945.94;5099214;28;20524;-75
2023/12/26 09:36:23;;;;;;;6.03;1.98;;;;;;;10.12;95.78;99946.00;5104390;29;20042;-75
2023/12/26 09:38:53;;;;;;;6.05;1.00;;;;;;;10.17;96.66;99951.03;5102990;28;20098;-75
2023/12/26 09:41:25;;;;;;;5.88;1.27;;;;;;;9.95;95.95;99955.44;5104753;29;20028;-74
2023/12/26 09:43:56;;;;;;;3.25;0.90;;;;;;;9.90;96.68;99960.88;5101423;28;20035;-74
2023/12/26 09:46:28;;;;;;;7.45;1.13;;;;;;;9.82;96.99;99970.75;5104685;29;20651;-74
2023/12/26 09:49:00;;;;;;;4.70;1.17;;;;;;;9.68;97.63;99972.25;5098604;29;20127;-75
2023/12/26 09:51:37;;;;;;;5.43;1.02;;;;;;;9.52;97.76;99974.63;5104563;29;20115;-75
2023/12/26 09:54:08;;;;;;;3.20;1.00;;;;;;;9.67;97.59;99973.19;5108483;28;20194;-75
2023/12/26 09:56:43;;;;;;;6.95;1.02;;;;;;;9.79;97.17;99989.16;5103835;29;20090;-74
2023/12/26 09:59:14;;;;;;;7.38;0.73;;;;;;;9.96;96.41;99978.03;5107777;28;20516;-75
2023/12/26 10:01:45;;;;;;;3.80;0.70;;;;;;;10.14;96.55;99972.88;5096975;29;20131;-73
2023/12/26 10:04:15;;;;;;;5.63;1.10;;;;;;;10.23;95.85;99982.09;5096127;28;20552;-75
2023/12/26 10:06:46;;;;;;;5.25;1.38;;;;;;;10.21;95.45;99987.38;5104164;29;20035;-75
2023/12/26 10:09:18;;;;;;;4.30;0.70;;;;;;;10.31;93.75;99980.00;5104111;29;20481;-75
2023/12/26 10:11:52;;;;;;;5.25;0.90;;;;;;;10.49;91.47;99979.19;5100697;28;20042;-75
2023/12/26 10:14:29;;;;;;;4.75;1.10;;;;;;;10.39;91.25;99990.94;5101143;29;20475;-75
2023/12/26 10:17:00;;;;;;;6.90;1.20;;;;;;;10.44;90.75;99996.81;5101463;28;20050;-75
2023/12/26 10:19:31;;;;;;;4.20;0.60;;;;;;;10.55;90.17;100002.41;5098286;29;20036;-76
2023/12/26 10:22:02;;;;;;;2.50;0.50;;;;;;;10.39;88.18;99985.72;5102411;28;20043;-75
2023/12/26 10:24:33;;;;;;;2.90;0.60;;;;;;;10.27;88.90;100004.53;5101378;29;20038;-75
2023/12/26 10:27:03;;;;;;;4.95;0.98;;;;;;;10.25;89.93;100014.19;5102696;28;20043;-75
2023/12/26 10:29:34;;;;;;;5.65;1.10;;;;;;;10.16;88.96;100014.63;5105607;29;20504;-75
2023/12/26 10:32:05;;;;;;;5.15;0.93;;;;;;;10.17;90.10;100008.47;5101049;28;20515;-75
2023/12/26 10:34:35;;;;;;;4.95;1.92;;;;;;;10.24;90.58;100028.16;5102129;29;20042;-74
2023/12/26 10:37:08;;;;;;;4.43;1.10;;;;;;;10.16;90.71;100035.50;5105932;28;20101;-75
2023/12/26 10:39:41;;;;;;;5.78;1.75;;;;;;;10.21;90.28;100038.75;5105029;29;20073;-74
2023/12/26 10:42:13;;;;;;;5.20;1.23;;;;;;;10.14;90.60;100039.94;5104170;28;20050;-76
2023/12/26 10:45:05;;;;;;;4.70;0.98;;;;;;;10.19;90.24;100043.19;5101304;29;20035;-75
2023/12/26 10:47:36;;;;;;;5.80;0.93;;;;;;;10.21;91.52;100054.41;5102928;28;20245;-76
2023/12/26 10:50:08;;;;;;;7.93;1.17;;;;;;;10.18;91.07;100049.34;5104898;29;20082;-75
2023/12/26 10:52:41;;;;;;;3.17;0.75;;;;;;;10.15;90.47;100054.69;5106523;28;20058;-75
2023/12/26 10:55:18;;;;;;;7.18;1.58;;;;;;;10.18;92.00;100055.38;5094724;29;20036;-76
2023/12/26 10:57:49;;;;;;;4.70;0.90;;;;;;;10.23;91.53;100057.81;5115413;28;20048;-75
2023/12/26 13:53:26;;;;;;;7.30;1.30;;;;;;;9.65;88.95;100181.09;5318573;27;20054;-73
2023/12/26 13:55:56;;;;;;;6.22;1.40;;;;;;;9.74;88.50;100193.78;5320950;27;20122;-73
2023/12/26 13:58:26;;;;;;;7.47;1.27;;;;;;;9.78;88.22;100187.53;5324887;27;20544;-74
2023/12/26 14:00:57;;;;;;;6.60;1.40;;;;;;;9.84;86.58;100198.59;5321950;27;20073;-73
2023/12/26 14:03:28;;;;;;;7.80;1.40;;;;;;;9.92;86.06;100203.50;5320377;27;20159;-73
2023/12/26 14:05:58;;;;;;;7.63;1.20;;;;;;;9.97;86.25;100205.03;5321517;27;20046;-73
2023/12/26 14:08:29;;;;;;;4.23;0.97;;;;;;;10.03;85.12;100209.22;5304916;27;20176;-74
2023/12/26 14:10:59;;;;;;;4.70;0.90;;;;;;;9.93;83.90;100210.44;5322477;27;20284;-73
2023/12/26 14:13:29;;;;;;;4.20;0.70;;;;;;;9.99;84.39;100208.44;5324433;27;20391;-73
2023/12/26 14:15:59;;;;;;;8.43;1.20;;;;;;;9.97;83.51;100209.44;5321929;27;20031;-71
2023/12/26 14:18:29;;;;;;;7.53;0.80;;;;;;;10.00;83.75;100224.97;5323754;27;20267;-73
2023/12/26 14:21:00;;;;;;;5.63;0.90;;;;;;;9.99;83.22;100246.75;5302322;27;22365;-74
2023/12/26 14:23:31;;;;;;;11.13;1.13;;;;;;;9.83;83.48;100248.25;5321531;27;20268;-73
2023/12/26 14:26:02;;;;;;;5.57;1.02;;;;;;;9.80;83.70;100251.00;5318096;27;20083;-75
2023/12/26 14:28:32;;;;;;;8.70;0.85;;;;;;;9.71;83.40;100256.53;5321721;27;20019;-73
2023/12/26 14:31:03;;;;;;;11.03;1.40;;;;;;;9.73;83.99;100260.81;5318709;27;20034;-74
2023/12/26 14:33:33;;;;;;;4.72;1.02;;;;;;;9.69;84.97;100258.34;5320492;27;20276;-74
2023/12/26 14:36:06;;;;;;;6.72;0.90;;;;;;;9.68;85.20;100269.69;5316419;27;20083;-72
2023/12/26 14:38:36;;;;;;;3.88;0.60;;;;;;;9.63;84.83;100269.03;5322977;27;20044;-73